sensor_id;sensor_type;location;lat;lon;timestamp;P1;durP1;ratioP1;P2;durP2;ratioP2
2618;SDS011;1319;52.346;13.096;2023-08-06T00:00:39;12.43;;;6.70;;
2618;SDS011;1319;52.346;13.096;2023-08-06T00:03:04;12.87;;;6.93;;
2618;SDS011;1319;52.346;13.096;2023-08-06T00:05:29;11.33;;;7.07;;
2618;SDS011;1319;52.346;13.096;2023-08-06T00:07:55;14.10;;;6.93;;
2618;SDS011;1319;52.346;13.096;2023-08-06T00:10:20;10.87;;;7.00;;
2618;SDS011;1319;52.346;13.096;2023-08-06T00:12:45;10.20;;;6.60;;
2618;SDS011;1319;52.346;13.096;2023-08-06T00:15:11;11.00;;;6.27;;
2618;SDS011;1319;52.346;13.096;2023-08-06T00:17:36;10.57;;;7.20;;
2618;SDS011;1319;52.346;13.096;2023-08-06T00:20:02;12.57;;;7.07;;
2618;SDS011;1319;52.346;13.096;2023-08-06T00:22:34;8.73;;;6.73;;
2618;SDS011;1319;52.346;13.096;2023-08-06T00:24:59;12.33;;;7.13;;
2618;SDS011;1319;52.346;13.096;2023-08-06T00:27:25;16.50;;;7.10;;
2618;SDS011;1319;52.346;13.096;2023-08-06T00:29:50;10.50;;;6.70;;
2618;SDS011;1319;52.346;13.096;2023-08-06T00:32:15;12.10;;;7.03;;
2618;SDS011;1319;52.346;13.096;2023-08-06T00:34:40;11.20;;;6.90;;
2618;SDS011;1319;52.346;13.096;2023-08-06T00:37:06;16.23;;;7.03;;
2618;SDS011;1319;52.346;13.096;2023-08-06T00:39:31;12.20;;;7.30;;
2618;SDS011;1319;52.346;13.096;2023-08-06T00:41:56;12.20;;;7.50;;
2618;SDS011;1319;52.346;13.096;2023-08-06T00:44:23;11.47;;;7.30;;
2618;SDS011;1319;52.346;13.096;2023-08-06T00:46:48;8.67;;;7.77;;
2618;SDS011;1319;52.346;13.096;2023-08-06T00:49:13;12.17;;;7.23;;
2618;SDS011;1319;52.346;13.096;2023-08-06T00:51:38;10.73;;;7.93;;
2618;SDS011;1319;52.346;13.096;2023-08-06T00:54:04;11.13;;;8.03;;
2618;SDS011;1319;52.346;13.096;2023-08-06T00:56:29;11.73;;;7.93;;
2618;SDS011;1319;52.346;13.096;2023-08-06T00:58:54;14.40;;;8.17;;
2618;SDS011;1319;52.346;13.096;2023-08-06T01:01:19;12.00;;;8.33;;
2618;SDS011;1319;52.346;13.096;2023-08-06T01:03:45;10.23;;;7.87;;
2618;SDS011;1319;52.346;13.096;2023-08-06T01:06:11;12.30;;;7.40;;
2618;SDS011;1319;52.346;13.096;2023-08-06T01:15:58;12.87;;;7.67;;
2618;SDS011;1319;52.346;13.096;2023-08-06T01:18:24;8.67;;;7.57;;
2618;SDS011;1319;52.346;13.096;2023-08-06T01:20:50;9.87;;;7.43;;
2618;SDS011;1319;52.346;13.096;2023-08-06T01:23:15;14.90;;;8.10;;
2618;SDS011;1319;52.346;13.096;2023-08-06T01:28:15;10.63;;;7.67;;
2618;SDS011;1319;52.346;13.096;2023-08-06T01:30:43;11.27;;;8.23;;
2618;SDS011;1319;52.346;13.096;2023-08-06T01:33:10;9.63;;;8.63;;
2618;SDS011;1319;52.346;13.096;2023-08-06T01:35:37;11.00;;;8.40;;
2618;SDS011;1319;52.346;13.096;2023-08-06T01:38:02;15.47;;;8.80;;
2618;SDS011;1319;52.346;13.096;2023-08-06T01:40:28;11.67;;;8.27;;
2618;SDS011;1319;52.346;13.096;2023-08-06T01:42:54;13.93;;;8.80;;
2618;SDS011;1319;52.346;13.096;2023-08-06T01:45:19;9.47;;;8.47;;
2618;SDS011;1319;52.346;13.096;2023-08-06T01:47:45;10.30;;;8.83;;
2618;SDS011;1319;52.346;13.096;2023-08-06T01:50:10;13.67;;;9.00;;
2618;SDS011;1319;52.346;13.096;2023-08-06T01:52:35;12.57;;;8.10;;
2618;SDS011;1319;52.346;13.096;2023-08-06T01:55:00;12.00;;;9.40;;
2618;SDS011;1319;52.346;13.096;2023-08-06T01:57:26;11.00;;;8.87;;
2618;SDS011;1319;52.346;13.096;2023-08-06T01:59:51;13.87;;;8.47;;
2618;SDS011;1319;52.346;13.096;2023-08-06T02:02:16;12.43;;;8.70;;
2618;SDS011;1319;52.346;13.096;2023-08-06T02:04:41;10.30;;;8.53;;
2618;SDS011;1319;52.346;13.096;2023-08-06T02:07:07;13.20;;;8.57;;
2618;SDS011;1319;52.346;13.096;2023-08-06T02:09:32;13.67;;;9.30;;
2618;SDS011;1319;52.346;13.096;2023-08-06T02:11:57;11.73;;;8.73;;
2618;SDS011;1319;52.346;13.096;2023-08-06T02:14:22;11.53;;;8.97;;
2618;SDS011;1319;52.346;13.096;2023-08-06T02:16:48;12.53;;;9.10;;
2618;SDS011;1319;52.346;13.096;2023-08-06T02:19:14;16.07;;;11.23;;
2618;SDS011;1319;52.346;13.096;2023-08-06T02:21:39;16.37;;;11.50;;
2618;SDS011;1319;52.346;13.096;2023-08-06T02:24:05;13.13;;;10.40;;
2618;SDS011;1319;52.346;13.096;2023-08-06T02:26:30;16.20;;;12.73;;
2618;SDS011;1319;52.346;13.096;2023-08-06T02:28:55;16.57;;;12.07;;
2618;SDS011;1319;52.346;13.096;2023-08-06T02:31:20;15.17;;;12.37;;
2618;SDS011;1319;52.346;13.096;2023-08-06T02:33:45;14.57;;;12.67;;
2618;SDS011;1319;52.346;13.096;2023-08-06T02:36:11;15.47;;;12.13;;
2618;SDS011;1319;52.346;13.096;2023-08-06T02:38:36;17.43;;;12.57;;
2618;SDS011;1319;52.346;13.096;2023-08-06T02:41:02;16.40;;;12.67;;
2618;SDS011;1319;52.346;13.096;2023-08-06T02:43:27;14.60;;;12.43;;
2618;SDS011;1319;52.346;13.096;2023-08-06T02:45:56;15.87;;;12.33;;
2618;SDS011;1319;52.346;13.096;2023-08-06T02:48:21;16.50;;;12.50;;
2618;SDS011;1319;52.346;13.096;2023-08-06T02:50:46;14.50;;;12.47;;
2618;SDS011;1319;52.346;13.096;2023-08-06T02:53:11;16.10;;;11.97;;
2618;SDS011;1319;52.346;13.096;2023-08-06T02:55:37;13.80;;;12.37;;
2618;SDS011;1319;52.346;13.096;2023-08-06T02:58:02;16.67;;;12.23;;
2618;SDS011;1319;52.346;13.096;2023-08-06T03:00:27;13.70;;;12.23;;
2618;SDS011;1319;52.346;13.096;2023-08-06T03:02:53;15.67;;;13.53;;
2618;SDS011;1319;52.346;13.096;2023-08-06T03:05:18;21.47;;;13.03;;
2618;SDS011;1319;52.346;13.096;2023-08-06T03:07:44;14.47;;;12.13;;
2618;SDS011;1319;52.346;13.096;2023-08-06T03:10:09;15.97;;;12.13;;
2618;SDS011;1319;52.346;13.096;2023-08-06T03:12:34;14.20;;;12.60;;
2618;SDS011;1319;52.346;13.096;2023-08-06T03:14:59;17.10;;;12.83;;
2618;SDS011;1319;52.346;13.096;2023-08-06T03:17:25;17.37;;;12.33;;
2618;SDS011;1319;52.346;13.096;2023-08-06T03:19:50;19.10;;;12.87;;
2618;SDS011;1319;52.346;13.096;2023-08-06T03:22:15;16.10;;;13.20;;
2618;SDS011;1319;52.346;13.096;2023-08-06T03:24:40;14.87;;;12.07;;
2618;SDS011;1319;52.346;13.096;2023-08-06T03:27:05;15.50;;;12.37;;
2618;SDS011;1319;52.346;13.096;2023-08-06T03:29:31;17.10;;;12.83;;
2618;SDS011;1319;52.346;13.096;2023-08-06T03:31:56;18.30;;;12.37;;
2618;SDS011;1319;52.346;13.096;2023-08-06T03:34:21;16.23;;;13.33;;
2618;SDS011;1319;52.346;13.096;2023-08-06T03:36:46;16.93;;;13.77;;
2618;SDS011;1319;52.346;13.096;2023-08-06T03:39:12;18.07;;;13.40;;
2618;SDS011;1319;52.346;13.096;2023-08-06T03:41:38;17.23;;;13.77;;
2618;SDS011;1319;52.346;13.096;2023-08-06T03:44:04;17.17;;;12.90;;
2618;SDS011;1319;52.346;13.096;2023-08-06T03:46:29;20.17;;;13.77;;
2618;SDS011;1319;52.346;13.096;2023-08-06T03:48:57;17.50;;;13.60;;
2618;SDS011;1319;52.346;13.096;2023-08-06T03:51:22;13.77;;;12.03;;
2618;SDS011;1319;52.346;13.096;2023-08-06T03:53:47;18.00;;;13.43;;
2618;SDS011;1319;52.346;13.096;2023-08-06T03:56:13;16.47;;;13.03;;
2618;SDS011;1319;52.346;13.096;2023-08-06T03:58:38;17.50;;;13.27;;
2618;SDS011;1319;52.346;13.096;2023-08-06T04:01:03;16.13;;;13.30;;
2618;SDS011;1319;52.346;13.096;2023-08-06T04:03:29;14.60;;;12.77;;
2618;SDS011;1319;52.346;13.096;2023-08-06T04:05:54;18.17;;;13.50;;
2618;SDS011;1319;52.346;13.096;2023-08-06T04:08:19;17.07;;;12.90;;
2618;SDS011;1319;52.346;13.096;2023-08-06T04:10:45;14.47;;;12.77;;
2618;SDS011;1319;52.346;13.096;2023-08-06T04:13:10;16.63;;;13.57;;
2618;SDS011;1319;52.346;13.096;2023-08-06T04:15:35;16.37;;;12.07;;
2618;SDS011;1319;52.346;13.096;2023-08-06T04:18:00;15.07;;;12.47;;
2618;SDS011;1319;52.346;13.096;2023-08-06T04:20:25;15.33;;;13.10;;
2618;SDS011;1319;52.346;13.096;2023-08-06T04:22:51;17.93;;;12.53;;
2618;SDS011;1319;52.346;13.096;2023-08-06T04:25:16;13.47;;;12.07;;
2618;SDS011;1319;52.346;13.096;2023-08-06T04:27:46;16.83;;;12.57;;
2618;SDS011;1319;52.346;13.096;2023-08-06T04:30:11;15.13;;;12.23;;
2618;SDS011;1319;52.346;13.096;2023-08-06T04:32:37;17.57;;;13.07;;
2618;SDS011;1319;52.346;13.096;2023-08-06T04:35:02;15.90;;;12.50;;
2618;SDS011;1319;52.346;13.096;2023-08-06T04:37:28;17.17;;;12.90;;
2618;SDS011;1319;52.346;13.096;2023-08-06T04:39:53;15.93;;;12.93;;
2618;SDS011;1319;52.346;13.096;2023-08-06T04:42:18;18.53;;;12.37;;
2618;SDS011;1319;52.346;13.096;2023-08-06T04:44:43;16.80;;;11.33;;
2618;SDS011;1319;52.346;13.096;2023-08-06T04:47:09;16.40;;;11.80;;
2618;SDS011;1319;52.346;13.096;2023-08-06T04:49:34;15.97;;;11.63;;
2618;SDS011;1319;52.346;13.096;2023-08-06T04:51:59;16.07;;;11.30;;
2618;SDS011;1319;52.346;13.096;2023-08-06T04:54:24;12.70;;;11.37;;
2618;SDS011;1319;52.346;13.096;2023-08-06T04:56:50;12.87;;;11.47;;
2618;SDS011;1319;52.346;13.096;2023-08-06T04:59:15;16.37;;;11.43;;
2618;SDS011;1319;52.346;13.096;2023-08-06T05:01:40;12.13;;;10.67;;
2618;SDS011;1319;52.346;13.096;2023-08-06T05:04:05;14.33;;;11.43;;
2618;SDS011;1319;52.346;13.096;2023-08-06T05:06:31;14.73;;;10.87;;
2618;SDS011;1319;52.346;13.096;2023-08-06T05:08:56;13.50;;;11.23;;
2618;SDS011;1319;52.346;13.096;2023-08-06T05:11:21;11.50;;;10.30;;
2618;SDS011;1319;52.346;13.096;2023-08-06T05:13:46;11.47;;;10.27;;
2618;SDS011;1319;52.346;13.096;2023-08-06T05:16:12;12.43;;;10.77;;
2618;SDS011;1319;52.346;13.096;2023-08-06T05:18:37;13.27;;;10.67;;
2618;SDS011;1319;52.346;13.096;2023-08-06T05:21:02;12.00;;;10.00;;
2618;SDS011;1319;52.346;13.096;2023-08-06T05:23:28;10.97;;;9.50;;
2618;SDS011;1319;52.346;13.096;2023-08-06T05:25:53;14.37;;;10.07;;
2618;SDS011;1319;52.346;13.096;2023-08-06T05:28:18;13.60;;;10.43;;
2618;SDS011;1319;52.346;13.096;2023-08-06T05:30:43;12.50;;;10.07;;
2618;SDS011;1319;52.346;13.096;2023-08-06T05:33:08;11.87;;;10.43;;
2618;SDS011;1319;52.346;13.096;2023-08-06T05:35:34;10.73;;;9.63;;
2618;SDS011;1319;52.346;13.096;2023-08-06T05:37:59;12.10;;;10.43;;
2618;SDS011;1319;52.346;13.096;2023-08-06T05:40:24;10.37;;;9.37;;
2618;SDS011;1319;52.346;13.096;2023-08-06T05:42:50;14.50;;;10.67;;
2618;SDS011;1319;52.346;13.096;2023-08-06T05:45:15;13.10;;;9.73;;
2618;SDS011;1319;52.346;13.096;2023-08-06T05:47:41;11.10;;;9.80;;
2618;SDS011;1319;52.346;13.096;2023-08-06T05:50:06;13.23;;;9.83;;
2618;SDS011;1319;52.346;13.096;2023-08-06T05:52:32;12.57;;;10.40;;
2618;SDS011;1319;52.346;13.096;2023-08-06T05:54:57;11.93;;;10.70;;
2618;SDS011;1319;52.346;13.096;2023-08-06T05:57:22;11.47;;;9.90;;
2618;SDS011;1319;52.346;13.096;2023-08-06T05:59:47;12.57;;;9.77;;
2618;SDS011;1319;52.346;13.096;2023-08-06T06:02:13;11.17;;;9.20;;
2618;SDS011;1319;52.346;13.096;2023-08-06T06:04:38;11.10;;;9.40;;
2618;SDS011;1319;52.346;13.096;2023-08-06T06:07:03;11.53;;;9.27;;
2618;SDS011;1319;52.346;13.096;2023-08-06T06:09:28;11.30;;;9.87;;
2618;SDS011;1319;52.346;13.096;2023-08-06T06:11:54;12.27;;;9.50;;
2618;SDS011;1319;52.346;13.096;2023-08-06T06:14:19;10.53;;;9.27;;
2618;SDS011;1319;52.346;13.096;2023-08-06T06:16:44;10.37;;;9.10;;
2618;SDS011;1319;52.346;13.096;2023-08-06T06:19:10;9.40;;;8.40;;
2618;SDS011;1319;52.346;13.096;2023-08-06T06:21:35;9.70;;;8.67;;
2618;SDS011;1319;52.346;13.096;2023-08-06T06:24:00;9.23;;;8.33;;
2618;SDS011;1319;52.346;13.096;2023-08-06T06:26:26;11.20;;;8.90;;
2618;SDS011;1319;52.346;13.096;2023-08-06T06:28:51;9.13;;;8.00;;
2618;SDS011;1319;52.346;13.096;2023-08-06T06:31:16;10.63;;;8.97;;
2618;SDS011;1319;52.346;13.096;2023-08-06T06:33:41;10.53;;;8.67;;
2618;SDS011;1319;52.346;13.096;2023-08-06T06:36:07;10.97;;;9.23;;
2618;SDS011;1319;52.346;13.096;2023-08-06T06:38:33;10.40;;;9.30;;
2618;SDS011;1319;52.346;13.096;2023-08-06T06:40:58;14.13;;;10.13;;
2618;SDS011;1319;52.346;13.096;2023-08-06T06:43:23;13.83;;;10.57;;
2618;SDS011;1319;52.346;13.096;2023-08-06T06:45:52;13.07;;;10.20;;
2618;SDS011;1319;52.346;13.096;2023-08-06T06:48:18;14.60;;;10.77;;
2618;SDS011;1319;52.346;13.096;2023-08-06T06:50:46;15.40;;;12.67;;
2618;SDS011;1319;52.346;13.096;2023-08-06T06:53:11;14.57;;;12.43;;
2618;SDS011;1319;52.346;13.096;2023-08-06T06:55:37;14.17;;;12.17;;
2618;SDS011;1319;52.346;13.096;2023-08-06T06:58:02;18.53;;;13.30;;
2618;SDS011;1319;52.346;13.096;2023-08-06T07:00:27;14.67;;;12.37;;
2618;SDS011;1319;52.346;13.096;2023-08-06T07:02:52;19.67;;;13.10;;
2618;SDS011;1319;52.346;13.096;2023-08-06T07:05:18;18.30;;;13.80;;
2618;SDS011;1319;52.346;13.096;2023-08-06T07:07:43;16.17;;;12.73;;
2618;SDS011;1319;52.346;13.096;2023-08-06T07:10:08;17.20;;;13.40;;
2618;SDS011;1319;52.346;13.096;2023-08-06T07:12:33;15.97;;;13.03;;
2618;SDS011;1319;52.346;13.096;2023-08-06T07:14:59;15.77;;;13.20;;
2618;SDS011;1319;52.346;13.096;2023-08-06T07:17:24;18.67;;;13.50;;
2618;SDS011;1319;52.346;13.096;2023-08-06T07:19:49;15.73;;;13.37;;
2618;SDS011;1319;52.346;13.096;2023-08-06T07:22:14;15.87;;;12.83;;
2618;SDS011;1319;52.346;13.096;2023-08-06T07:24:40;17.63;;;12.67;;
2618;SDS011;1319;52.346;13.096;2023-08-06T07:27:05;18.23;;;12.47;;
2618;SDS011;1319;52.346;13.096;2023-08-06T07:29:30;14.80;;;12.23;;
2618;SDS011;1319;52.346;13.096;2023-08-06T07:31:56;14.90;;;12.33;;
2618;SDS011;1319;52.346;13.096;2023-08-06T07:34:21;15.23;;;12.67;;
2618;SDS011;1319;52.346;13.096;2023-08-06T07:36:46;16.87;;;13.57;;
2618;SDS011;1319;52.346;13.096;2023-08-06T07:39:12;14.30;;;12.80;;
2618;SDS011;1319;52.346;13.096;2023-08-06T07:41:37;14.83;;;13.13;;
2618;SDS011;1319;52.346;13.096;2023-08-06T07:44:02;14.73;;;13.00;;
2618;SDS011;1319;52.346;13.096;2023-08-06T07:46:28;17.00;;;12.40;;
2618;SDS011;1319;52.346;13.096;2023-08-06T07:48:53;15.17;;;12.30;;
2618;SDS011;1319;52.346;13.096;2023-08-06T07:51:18;15.37;;;12.20;;
2618;SDS011;1319;52.346;13.096;2023-08-06T07:53:43;16.10;;;13.17;;
2618;SDS011;1319;52.346;13.096;2023-08-06T07:56:09;16.00;;;12.77;;
2618;SDS011;1319;52.346;13.096;2023-08-06T07:58:34;16.93;;;13.23;;
2618;SDS011;1319;52.346;13.096;2023-08-06T08:00:59;13.30;;;11.90;;
2618;SDS011;1319;52.346;13.096;2023-08-06T08:03:25;13.83;;;12.00;;
2618;SDS011;1319;52.346;13.096;2023-08-06T08:05:50;14.57;;;11.97;;
2618;SDS011;1319;52.346;13.096;2023-08-06T08:08:19;14.30;;;11.13;;
2618;SDS011;1319;52.346;13.096;2023-08-06T08:10:44;11.70;;;10.50;;
2618;SDS011;1319;52.346;13.096;2023-08-06T08:13:10;12.70;;;10.90;;
2618;SDS011;1319;52.346;13.096;2023-08-06T08:15:35;12.43;;;10.53;;
2618;SDS011;1319;52.346;13.096;2023-08-06T08:18:00;13.47;;;11.10;;
2618;SDS011;1319;52.346;13.096;2023-08-06T08:20:26;12.50;;;10.30;;
2618;SDS011;1319;52.346;13.096;2023-08-06T08:22:56;11.80;;;10.17;;
2618;SDS011;1319;52.346;13.096;2023-08-06T08:25:21;11.00;;;9.90;;
2618;SDS011;1319;52.346;13.096;2023-08-06T08:27:46;10.50;;;9.00;;
2618;SDS011;1319;52.346;13.096;2023-08-06T08:30:12;10.07;;;9.07;;
2618;SDS011;1319;52.346;13.096;2023-08-06T08:32:37;10.30;;;9.23;;
2618;SDS011;1319;52.346;13.096;2023-08-06T08:35:02;10.50;;;8.63;;
2618;SDS011;1319;52.346;13.096;2023-08-06T08:37:28;8.80;;;7.90;;
2618;SDS011;1319;52.346;13.096;2023-08-06T08:39:53;9.47;;;8.57;;
2618;SDS011;1319;52.346;13.096;2023-08-06T08:42:18;9.93;;;8.40;;
2618;SDS011;1319;52.346;13.096;2023-08-06T08:44:44;9.30;;;8.43;;
2618;SDS011;1319;52.346;13.096;2023-08-06T08:47:10;8.40;;;7.60;;
2618;SDS011;1319;52.346;13.096;2023-08-06T08:49:35;9.37;;;8.43;;
2618;SDS011;1319;52.346;13.096;2023-08-06T08:52:01;9.30;;;8.40;;
2618;SDS011;1319;52.346;13.096;2023-08-06T08:54:26;9.90;;;8.90;;
2618;SDS011;1319;52.346;13.096;2023-08-06T08:56:53;9.80;;;8.80;;
2618;SDS011;1319;52.346;13.096;2023-08-06T08:59:20;9.57;;;8.50;;
2618;SDS011;1319;52.346;13.096;2023-08-06T09:01:45;8.47;;;7.07;;
2618;SDS011;1319;52.346;13.096;2023-08-06T09:04:11;7.47;;;6.77;;
2618;SDS011;1319;52.346;13.096;2023-08-06T09:06:37;7.23;;;6.53;;
2618;SDS011;1319;52.346;13.096;2023-08-06T09:09:07;6.80;;;6.23;;
2618;SDS011;1319;52.346;13.096;2023-08-06T09:11:37;8.67;;;6.97;;
2618;SDS011;1319;52.346;13.096;2023-08-06T09:14:08;7.17;;;6.47;;
2618;SDS011;1319;52.346;13.096;2023-08-06T09:16:34;7.43;;;6.17;;
2618;SDS011;1319;52.346;13.096;2023-08-06T09:19:12;6.97;;;6.27;;
2618;SDS011;1319;52.346;13.096;2023-08-06T09:21:38;6.20;;;5.67;;
2618;SDS011;1319;52.346;13.096;2023-08-06T09:24:10;6.90;;;6.30;;
2618;SDS011;1319;52.346;13.096;2023-08-06T09:26:36;8.83;;;5.80;;
2618;SDS011;1319;52.346;13.096;2023-08-06T09:29:01;6.27;;;5.77;;
2618;SDS011;1319;52.346;13.096;2023-08-06T09:31:50;6.63;;;6.03;;
2618;SDS011;1319;52.346;13.096;2023-08-06T09:34:17;6.70;;;6.10;;
2618;SDS011;1319;52.346;13.096;2023-08-06T09:36:42;6.83;;;6.20;;
2618;SDS011;1319;52.346;13.096;2023-08-06T09:39:18;6.17;;;5.67;;
2618;SDS011;1319;52.346;13.096;2023-08-06T09:41:43;6.43;;;5.83;;
2618;SDS011;1319;52.346;13.096;2023-08-06T09:44:15;6.60;;;5.87;;
2618;SDS011;1319;52.346;13.096;2023-08-06T09:46:42;5.67;;;5.27;;
2618;SDS011;1319;52.346;13.096;2023-08-06T09:49:07;6.20;;;5.47;;
2618;SDS011;1319;52.346;13.096;2023-08-06T09:51:33;6.63;;;5.70;;
2618;SDS011;1319;52.346;13.096;2023-08-06T09:53:59;6.27;;;5.73;;
2618;SDS011;1319;52.346;13.096;2023-08-06T09:56:25;6.70;;;6.17;;
2618;SDS011;1319;52.346;13.096;2023-08-06T09:58:51;6.50;;;6.00;;
2618;SDS011;1319;52.346;13.096;2023-08-06T10:01:17;6.13;;;5.53;;
2618;SDS011;1319;52.346;13.096;2023-08-06T10:03:44;6.37;;;5.73;;
2618;SDS011;1319;52.346;13.096;2023-08-06T10:06:09;5.77;;;5.27;;
2618;SDS011;1319;52.346;13.096;2023-08-06T10:08:35;6.00;;;5.50;;
2618;SDS011;1319;52.346;13.096;2023-08-06T10:11:01;6.40;;;5.90;;
2618;SDS011;1319;52.346;13.096;2023-08-06T10:13:27;5.70;;;5.27;;
2618;SDS011;1319;52.346;13.096;2023-08-06T10:15:52;5.67;;;5.17;;
2618;SDS011;1319;52.346;13.096;2023-08-06T10:18:18;6.28;;;5.70;;
2618;SDS011;1319;52.346;13.096;2023-08-06T10:20:46;5.63;;;5.13;;
2618;SDS011;1319;52.346;13.096;2023-08-06T10:23:11;6.00;;;5.53;;
2618;SDS011;1319;52.346;13.096;2023-08-06T10:25:42;6.20;;;5.70;;
2618;SDS011;1319;52.346;13.096;2023-08-06T10:28:10;6.07;;;5.57;;
2618;SDS011;1319;52.346;13.096;2023-08-06T10:30:41;5.70;;;5.17;;
2618;SDS011;1319;52.346;13.096;2023-08-06T10:33:07;6.30;;;5.70;;
2618;SDS011;1319;52.346;13.096;2023-08-06T10:37:58;6.03;;;5.47;;
2618;SDS011;1319;52.346;13.096;2023-08-06T10:40:23;6.13;;;5.53;;
2618;SDS011;1319;52.346;13.096;2023-08-06T10:42:49;6.60;;;6.00;;
2618;SDS011;1319;52.346;13.096;2023-08-06T10:45:15;5.60;;;5.03;;
2618;SDS011;1319;52.346;13.096;2023-08-06T10:47:41;6.47;;;5.88;;
2618;SDS011;1319;52.346;13.096;2023-08-06T10:50:16;5.57;;;5.18;;
2618;SDS011;1319;52.346;13.096;2023-08-06T10:52:45;6.05;;;5.45;;
2618;SDS011;1319;52.346;13.096;2023-08-06T10:55:11;6.40;;;5.72;;
2618;SDS011;1319;52.346;13.096;2023-08-06T10:57:36;5.50;;;5.10;;
2618;SDS011;1319;52.346;13.096;2023-08-06T11:00:03;5.20;;;4.73;;
2618;SDS011;1319;52.346;13.096;2023-08-06T11:02:30;5.40;;;5.00;;
2618;SDS011;1319;52.346;13.096;2023-08-06T11:04:58;5.88;;;5.13;;
2618;SDS011;1319;52.346;13.096;2023-08-06T11:07:23;4.93;;;4.53;;
2618;SDS011;1319;52.346;13.096;2023-08-06T11:09:53;5.18;;;4.78;;
2618;SDS011;1319;52.346;13.096;2023-08-06T11:12:25;5.10;;;4.70;;
2618;SDS011;1319;52.346;13.096;2023-08-06T11:14:50;5.38;;;4.97;;
2618;SDS011;1319;52.346;13.096;2023-08-06T11:17:16;5.60;;;5.20;;
2618;SDS011;1319;52.346;13.096;2023-08-06T11:19:41;5.40;;;5.00;;
2618;SDS011;1319;52.346;13.096;2023-08-06T11:22:06;5.38;;;4.97;;
2618;SDS011;1319;52.346;13.096;2023-08-06T11:24:31;4.90;;;4.53;;
2618;SDS011;1319;52.346;13.096;2023-08-06T11:26:57;5.35;;;4.95;;
2618;SDS011;1319;52.346;13.096;2023-08-06T11:29:22;5.28;;;4.88;;
2618;SDS011;1319;52.346;13.096;2023-08-06T11:31:48;5.65;;;5.15;;
2618;SDS011;1319;52.346;13.096;2023-08-06T11:34:13;5.18;;;4.80;;
2618;SDS011;1319;52.346;13.096;2023-08-06T11:36:40;7.50;;;4.85;;
2618;SDS011;1319;52.346;13.096;2023-08-06T11:39:06;4.80;;;4.40;;
2618;SDS011;1319;52.346;13.096;2023-08-06T11:41:31;5.03;;;4.63;;
2618;SDS011;1319;52.346;13.096;2023-08-06T11:43:57;6.72;;;5.20;;
2618;SDS011;1319;52.346;13.096;2023-08-06T11:46:22;5.32;;;4.90;;
2618;SDS011;1319;52.346;13.096;2023-08-06T11:48:58;5.32;;;4.93;;
2618;SDS011;1319;52.346;13.096;2023-08-06T11:51:24;4.97;;;4.57;;
2618;SDS011;1319;52.346;13.096;2023-08-06T11:53:51;5.43;;;4.93;;
2618;SDS011;1319;52.346;13.096;2023-08-06T11:56:16;5.97;;;5.30;;
2618;SDS011;1319;52.346;13.096;2023-08-06T11:58:42;5.30;;;4.80;;
2618;SDS011;1319;52.346;13.096;2023-08-06T12:01:07;5.40;;;5.00;;
2618;SDS011;1319;52.346;13.096;2023-08-06T12:03:32;5.40;;;5.00;;
2618;SDS011;1319;52.346;13.096;2023-08-06T12:05:58;5.03;;;4.63;;
2618;SDS011;1319;52.346;13.096;2023-08-06T12:08:26;5.40;;;4.90;;
2618;SDS011;1319;52.346;13.096;2023-08-06T12:10:51;5.20;;;4.80;;
2618;SDS011;1319;52.346;13.096;2023-08-06T12:13:18;5.22;;;4.82;;
2618;SDS011;1319;52.346;13.096;2023-08-06T12:15:44;4.80;;;4.40;;
2618;SDS011;1319;52.346;13.096;2023-08-06T12:18:09;4.72;;;4.40;;
2618;SDS011;1319;52.346;13.096;2023-08-06T12:20:35;4.30;;;4.00;;
2618;SDS011;1319;52.346;13.096;2023-08-06T12:23:00;4.72;;;4.32;;
2618;SDS011;1319;52.346;13.096;2023-08-06T12:25:25;4.82;;;4.32;;
2618;SDS011;1319;52.346;13.096;2023-08-06T12:27:51;5.10;;;4.50;;
2618;SDS011;1319;52.346;13.096;2023-08-06T12:30:16;4.90;;;4.60;;
2618;SDS011;1319;52.346;13.096;2023-08-06T12:32:41;4.38;;;4.07;;
2618;SDS011;1319;52.346;13.096;2023-08-06T12:35:07;4.60;;;4.22;;
2618;SDS011;1319;52.346;13.096;2023-08-06T12:37:32;4.70;;;4.30;;
2618;SDS011;1319;52.346;13.096;2023-08-06T12:39:58;4.28;;;3.97;;
2618;SDS011;1319;52.346;13.096;2023-08-06T12:42:23;4.80;;;4.40;;
2618;SDS011;1319;52.346;13.096;2023-08-06T12:44:49;4.28;;;3.97;;
2618;SDS011;1319;52.346;13.096;2023-08-06T12:47:15;4.80;;;4.40;;
2618;SDS011;1319;52.346;13.096;2023-08-06T12:49:41;4.60;;;4.13;;
2618;SDS011;1319;52.346;13.096;2023-08-06T12:52:06;4.63;;;4.25;;
2618;SDS011;1319;52.346;13.096;2023-08-06T12:54:32;4.40;;;4.10;;
2618;SDS011;1319;52.346;13.096;2023-08-06T12:57:04;4.88;;;4.50;;
2618;SDS011;1319;52.346;13.096;2023-08-06T12:59:29;5.68;;;4.40;;
2618;SDS011;1319;52.346;13.096;2023-08-06T13:01:54;5.28;;;4.88;;
2618;SDS011;1319;52.346;13.096;2023-08-06T13:04:20;5.18;;;4.78;;
2618;SDS011;1319;52.346;13.096;2023-08-06T13:06:45;5.07;;;4.68;;
2618;SDS011;1319;52.346;13.096;2023-08-06T13:09:10;5.97;;;5.20;;
2618;SDS011;1319;52.346;13.096;2023-08-06T13:11:36;5.97;;;5.40;;
2618;SDS011;1319;52.346;13.096;2023-08-06T13:14:06;5.82;;;4.97;;
2618;SDS011;1319;52.346;13.096;2023-08-06T13:16:32;7.90;;;5.00;;
2618;SDS011;1319;52.346;13.096;2023-08-06T13:18:58;5.65;;;5.05;;
2618;SDS011;1319;52.346;13.096;2023-08-06T13:21:23;6.88;;;5.63;;
2618;SDS011;1319;52.346;13.096;2023-08-06T13:23:48;6.10;;;5.47;;
2618;SDS011;1319;52.346;13.096;2023-08-06T13:26:13;7.75;;;5.97;;
2618;SDS011;1319;52.346;13.096;2023-08-06T13:28:40;6.07;;;5.53;;
2618;SDS011;1319;52.346;13.096;2023-08-06T13:31:06;6.35;;;5.75;;
2618;SDS011;1319;52.346;13.096;2023-08-06T13:33:31;6.85;;;6.15;;
2618;SDS011;1319;52.346;13.096;2023-08-06T13:35:57;6.60;;;5.93;;
2618;SDS011;1319;52.346;13.096;2023-08-06T13:38:22;6.35;;;5.55;;
2618;SDS011;1319;52.346;13.096;2023-08-06T13:40:47;6.45;;;5.75;;
2618;SDS011;1319;52.346;13.096;2023-08-06T13:43:12;6.30;;;5.70;;
2618;SDS011;1319;52.346;13.096;2023-08-06T13:45:38;6.25;;;5.70;;
2618;SDS011;1319;52.346;13.096;2023-08-06T13:48:03;6.60;;;6.00;;
2618;SDS011;1319;52.346;13.096;2023-08-06T13:50:29;6.57;;;5.97;;
2618;SDS011;1319;52.346;13.096;2023-08-06T13:52:54;7.18;;;6.55;;
2618;SDS011;1319;52.346;13.096;2023-08-06T13:55:20;7.65;;;6.85;;
2618;SDS011;1319;52.346;13.096;2023-08-06T13:57:46;7.22;;;6.50;;
2618;SDS011;1319;52.346;13.096;2023-08-06T14:00:11;6.35;;;5.75;;
2618;SDS011;1319;52.346;13.096;2023-08-06T14:02:36;7.60;;;6.88;;
2618;SDS011;1319;52.346;13.096;2023-08-06T14:05:02;7.00;;;6.30;;
2618;SDS011;1319;52.346;13.096;2023-08-06T14:07:27;6.63;;;6.13;;
2618;SDS011;1319;52.346;13.096;2023-08-06T14:09:52;7.53;;;6.70;;
2618;SDS011;1319;52.346;13.096;2023-08-06T14:12:17;6.65;;;6.05;;
2618;SDS011;1319;52.346;13.096;2023-08-06T14:14:43;7.03;;;6.32;;
2618;SDS011;1319;52.346;13.096;2023-08-06T14:17:08;7.80;;;7.05;;
2618;SDS011;1319;52.346;13.096;2023-08-06T14:19:33;6.75;;;6.15;;
2618;SDS011;1319;52.346;13.096;2023-08-06T14:21:58;3.63;;;3.33;;
2618;SDS011;1319;52.346;13.096;2023-08-06T14:24:24;3.25;;;3.00;;
2618;SDS011;1319;52.346;13.096;2023-08-06T14:26:49;3.70;;;3.40;;
2618;SDS011;1319;52.346;13.096;2023-08-06T14:29:14;3.90;;;3.47;;
2618;SDS011;1319;52.346;13.096;2023-08-06T14:31:40;3.30;;;3.10;;
2618;SDS011;1319;52.346;13.096;2023-08-06T14:34:05;3.63;;;3.33;;
2618;SDS011;1319;52.346;13.096;2023-08-06T14:36:30;3.55;;;3.35;;
2618;SDS011;1319;52.346;13.096;2023-08-06T14:38:55;3.97;;;3.65;;
2618;SDS011;1319;52.346;13.096;2023-08-06T14:41:21;3.67;;;3.38;;
2618;SDS011;1319;52.346;13.096;2023-08-06T14:43:46;4.88;;;3.70;;
2618;SDS011;1319;52.346;13.096;2023-08-06T14:46:11;3.70;;;3.40;;
2618;SDS011;1319;52.346;13.096;2023-08-06T14:48:36;3.47;;;3.17;;
2618;SDS011;1319;52.346;13.096;2023-08-06T14:51:02;3.58;;;3.30;;